sensor_id;sensor_type;location;lat;lon;timestamp;temperature;humidity
19050;DHT22;9657;45.940;12.840;2022-07-31T00:00:25;32.70;44.80
19050;DHT22;9657;45.940;12.840;2022-07-31T00:02:52;32.70;44.80
19050;DHT22;9657;45.940;12.840;2022-07-31T00:05:19;32.70;44.80
19050;DHT22;9657;45.940;12.840;2022-07-31T00:07:46;32.70;44.80
19050;DHT22;9657;45.940;12.840;2022-07-31T00:10:14;32.70;44.80
19050;DHT22;9657;45.940;12.840;2022-07-31T00:12:42;32.70;44.80
19050;DHT22;9657;45.940;12.840;2022-07-31T00:15:10;32.70;44.90
19050;DHT22;9657;45.940;12.840;2022-07-31T00:17:38;32.70;44.80
19050;DHT22;9657;45.940;12.840;2022-07-31T00:20:07;32.60;44.80
19050;DHT22;9657;45.940;12.840;2022-07-31T00:22:34;32.60;44.70
19050;DHT22;9657;45.940;12.840;2022-07-31T00:25:02;32.60;44.80
19050;DHT22;9657;45.940;12.840;2022-07-31T00:27:31;32.60;44.70
19050;DHT22;9657;45.940;12.840;2022-07-31T00:29:58;32.70;44.80
19050;DHT22;9657;45.940;12.840;2022-07-31T00:32:25;32.60;44.70
19050;DHT22;9657;45.940;12.840;2022-07-31T00:34:52;32.60;44.80
19050;DHT22;9657;45.940;12.840;2022-07-31T00:37:19;32.60;44.70
19050;DHT22;9657;45.940;12.840;2022-07-31T00:39:47;32.60;44.70
19050;DHT22;9657;45.940;12.840;2022-07-31T00:42:17;32.60;44.70
19050;DHT22;9657;45.940;12.840;2022-07-31T00:44:46;32.60;44.70
19050;DHT22;9657;45.940;12.840;2022-07-31T00:47:13;32.60;44.70
19050;DHT22;9657;45.940;12.840;2022-07-31T00:49:40;32.60;44.70
19050;DHT22;9657;45.940;12.840;2022-07-31T00:52:07;32.60;44.60
19050;DHT22;9657;45.940;12.840;2022-07-31T00:54:35;32.60;44.60
19050;DHT22;9657;45.940;12.840;2022-07-31T00:57:02;32.60;44.70
19050;DHT22;9657;45.940;12.840;2022-07-31T00:59:30;32.60;44.60
19050;DHT22;9657;45.940;12.840;2022-07-31T01:04:34;32.60;44.60
19050;DHT22;9657;45.940;12.840;2022-07-31T01:07:01;32.60;44.60
19050;DHT22;9657;45.940;12.840;2022-07-31T01:09:28;32.60;44.60
19050;DHT22;9657;45.940;12.840;2022-07-31T01:11:59;32.60;44.60
19050;DHT22;9657;45.940;12.840;2022-07-31T01:14:31;32.60;45.20
19050;DHT22;9657;45.940;12.840;2022-07-31T01:17:00;32.50;44.50
19050;DHT22;9657;45.940;12.840;2022-07-31T01:19:31;32.60;44.50
19050;DHT22;9657;45.940;12.840;2022-07-31T01:22:08;32.60;44.50
19050;DHT22;9657;45.940;12.840;2022-07-31T01:24:51;32.60;44.50
19050;DHT22;9657;45.940;12.840;2022-07-31T01:27:29;32.50;44.40
19050;DHT22;9657;45.940;12.840;2022-07-31T01:30:02;32.60;44.50
19050;DHT22;9657;45.940;12.840;2022-07-31T01:32:34;32.60;44.50
19050;DHT22;9657;45.940;12.840;2022-07-31T01:35:05;32.60;44.40
19050;DHT22;9657;45.940;12.840;2022-07-31T01:37:35;32.50;44.40
19050;DHT22;9657;45.940;12.840;2022-07-31T01:40:09;32.50;44.30
19050;DHT22;9657;45.940;12.840;2022-07-31T01:42:41;32.60;44.40
19050;DHT22;9657;45.940;12.840;2022-07-31T01:45:11;32.50;44.30
19050;DHT22;9657;45.940;12.840;2022-07-31T01:47:40;32.50;44.30
19050;DHT22;9657;45.940;12.840;2022-07-31T01:50:09;32.50;44.30
19050;DHT22;9657;45.940;12.840;2022-07-31T01:52:39;32.50;44.30
19050;DHT22;9657;45.940;12.840;2022-07-31T01:55:09;32.50;44.20
19050;DHT22;9657;45.940;12.840;2022-07-31T01:57:40;32.50;44.20
19050;DHT22;9657;45.940;12.840;2022-07-31T02:00:11;32.40;44.20
19050;DHT22;9657;45.940;12.840;2022-07-31T02:02:39;32.50;44.20
19050;DHT22;9657;45.940;12.840;2022-07-31T02:05:09;32.40;44.20
19050;DHT22;9657;45.940;12.840;2022-07-31T02:07:37;32.40;44.20
19050;DHT22;9657;45.940;12.840;2022-07-31T02:10:08;32.40;44.10
19050;DHT22;9657;45.940;12.840;2022-07-31T02:12:36;32.40;44.10
19050;DHT22;9657;45.940;12.840;2022-07-31T02:15:06;32.40;44.10
19050;DHT22;9657;45.940;12.840;2022-07-31T02:17:35;32.40;44.10
19050;DHT22;9657;45.940;12.840;2022-07-31T02:20:05;32.40;44.00
19050;DHT22;9657;45.940;12.840;2022-07-31T02:22:33;32.40;44.00
19050;DHT22;9657;45.940;12.840;2022-07-31T02:25:00;32.40;43.90
19050;DHT22;9657;45.940;12.840;2022-07-31T02:27:28;32.40;43.90
19050;DHT22;9657;45.940;12.840;2022-07-31T02:29:59;32.40;43.90
19050;DHT22;9657;45.940;12.840;2022-07-31T02:32:29;32.40;43.90
19050;DHT22;9657;45.940;12.840;2022-07-31T02:35:00;32.40;43.90
19050;DHT22;9657;45.940;12.840;2022-07-31T02:37:29;32.40;43.80
19050;DHT22;9657;45.940;12.840;2022-07-31T02:39:58;32.40;43.80
19050;DHT22;9657;45.940;12.840;2022-07-31T02:42:26;32.40;43.70
19050;DHT22;9657;45.940;12.840;2022-07-31T02:44:54;32.30;43.60
19050;DHT22;9657;45.940;12.840;2022-07-31T02:47:22;32.30;43.60
19050;DHT22;9657;45.940;12.840;2022-07-31T02:49:50;32.40;43.60
19050;DHT22;9657;45.940;12.840;2022-07-31T02:52:20;32.40;43.60
19050;DHT22;9657;45.940;12.840;2022-07-31T02:54:49;32.30;43.50
19050;DHT22;9657;45.940;12.840;2022-07-31T02:57:17;32.40;43.50
19050;DHT22;9657;45.940;12.840;2022-07-31T02:59:44;32.30;43.40
19050;DHT22;9657;45.940;12.840;2022-07-31T03:02:11;32.30;43.40
19050;DHT22;9657;45.940;12.840;2022-07-31T03:04:38;32.30;43.30
19050;DHT22;9657;45.940;12.840;2022-07-31T03:07:05;32.30;43.30
19050;DHT22;9657;45.940;12.840;2022-07-31T03:09:34;32.30;43.20
19050;DHT22;9657;45.940;12.840;2022-07-31T03:12:01;32.30;43.20
19050;DHT22;9657;45.940;12.840;2022-07-31T03:14:29;32.30;43.20
19050;DHT22;9657;45.940;12.840;2022-07-31T03:16:57;32.30;43.10
19050;DHT22;9657;45.940;12.840;2022-07-31T03:19:25;32.30;43.10
19050;DHT22;9657;45.940;12.840;2022-07-31T03:21:53;32.30;43.10
19050;DHT22;9657;45.940;12.840;2022-07-31T03:24:20;32.30;43.10
19050;DHT22;9657;45.940;12.840;2022-07-31T03:26:49;32.20;43.10
19050;DHT22;9657;45.940;12.840;2022-07-31T03:29:16;32.30;43.00
19050;DHT22;9657;45.940;12.840;2022-07-31T03:31:43;32.20;43.00
19050;DHT22;9657;45.940;12.840;2022-07-31T03:34:10;32.20;42.90
19050;DHT22;9657;45.940;12.840;2022-07-31T03:36:38;32.20;42.90
19050;DHT22;9657;45.940;12.840;2022-07-31T03:39:05;32.20;42.90
19050;DHT22;9657;45.940;12.840;2022-07-31T03:41:32;32.20;42.80
19050;DHT22;9657;45.940;12.840;2022-07-31T03:44:01;32.20;42.80
19050;DHT22;9657;45.940;12.840;2022-07-31T03:46:29;32.20;42.70
19050;DHT22;9657;45.940;12.840;2022-07-31T03:48:56;32.20;42.70
19050;DHT22;9657;45.940;12.840;2022-07-31T03:51:24;32.20;42.60
19050;DHT22;9657;45.940;12.840;2022-07-31T03:53:51;32.20;42.60
19050;DHT22;9657;45.940;12.840;2022-07-31T03:56:18;32.20;42.60
19050;DHT22;9657;45.940;12.840;2022-07-31T03:58:46;32.20;42.60
19050;DHT22;9657;45.940;12.840;2022-07-31T04:01:15;32.20;42.60
19050;DHT22;9657;45.940;12.840;2022-07-31T04:03:43;32.20;42.60
19050;DHT22;9657;45.940;12.840;2022-07-31T04:06:10;32.20;42.60
19050;DHT22;9657;45.940;12.840;2022-07-31T04:08:37;32.20;42.50
19050;DHT22;9657;45.940;12.840;2022-07-31T04:11:04;32.20;42.50
19050;DHT22;9657;45.940;12.840;2022-07-31T04:13:32;32.20;42.50
19050;DHT22;9657;45.940;12.840;2022-07-31T04:16:00;32.10;42.40
19050;DHT22;9657;45.940;12.840;2022-07-31T04:18:29;32.10;42.40
19050;DHT22;9657;45.940;12.840;2022-07-31T04:20:56;32.10;42.40
19050;DHT22;9657;45.940;12.840;2022-07-31T04:23:23;32.10;42.30
19050;DHT22;9657;45.940;12.840;2022-07-31T04:25:50;32.10;42.30
19050;DHT22;9657;45.940;12.840;2022-07-31T04:28:17;32.10;42.40
19050;DHT22;9657;45.940;12.840;2022-07-31T04:30:44;32.10;42.30
19050;DHT22;9657;45.940;12.840;2022-07-31T04:33:11;32.10;42.30
19050;DHT22;9657;45.940;12.840;2022-07-31T04:35:41;32.00;42.30
19050;DHT22;9657;45.940;12.840;2022-07-31T04:38:08;32.10;42.30
19050;DHT22;9657;45.940;12.840;2022-07-31T04:40:36;32.10;42.30
19050;DHT22;9657;45.940;12.840;2022-07-31T04:43:03;32.00;42.20
19050;DHT22;9657;45.940;12.840;2022-07-31T04:45:31;32.00;42.20
19050;DHT22;9657;45.940;12.840;2022-07-31T04:47:58;32.10;42.20
19050;DHT22;9657;45.940;12.840;2022-07-31T04:50:25;32.10;42.20
19050;DHT22;9657;45.940;12.840;2022-07-31T04:52:53;32.00;42.00
19050;DHT22;9657;45.940;12.840;2022-07-31T04:55:20;32.00;42.00
19050;DHT22;9657;45.940;12.840;2022-07-31T04:57:48;32.00;42.00
19050;DHT22;9657;45.940;12.840;2022-07-31T05:00:16;32.00;42.00
19050;DHT22;9657;45.940;12.840;2022-07-31T05:02:43;32.00;42.00
19050;DHT22;9657;45.940;12.840;2022-07-31T05:05:10;32.00;41.90
19050;DHT22;9657;45.940;12.840;2022-07-31T05:07:37;32.00;41.90
19050;DHT22;9657;45.940;12.840;2022-07-31T05:10:06;32.00;41.90
19050;DHT22;9657;45.940;12.840;2022-07-31T05:12:33;32.00;41.80
19050;DHT22;9657;45.940;12.840;2022-07-31T05:15:01;32.00;41.70
19050;DHT22;9657;45.940;12.840;2022-07-31T05:17:28;31.90;41.70
19050;DHT22;9657;45.940;12.840;2022-07-31T05:19:55;31.90;41.60
19050;DHT22;9657;45.940;12.840;2022-07-31T05:22:22;31.90;41.50
19050;DHT22;9657;45.940;12.840;2022-07-31T05:24:49;31.90;41.40
19050;DHT22;9657;45.940;12.840;2022-07-31T05:27:17;31.90;41.40
19050;DHT22;9657;45.940;12.840;2022-07-31T05:29:44;31.90;41.30
19050;DHT22;9657;45.940;12.840;2022-07-31T05:32:11;31.90;41.30
19050;DHT22;9657;45.940;12.840;2022-07-31T05:34:39;31.90;41.20
19050;DHT22;9657;45.940;12.840;2022-07-31T05:37:06;31.90;41.20
19050;DHT22;9657;45.940;12.840;2022-07-31T05:39:33;31.90;41.20
19050;DHT22;9657;45.940;12.840;2022-07-31T05:42:00;31.90;41.20
19050;DHT22;9657;45.940;12.840;2022-07-31T05:44:28;31.90;41.20
19050;DHT22;9657;45.940;12.840;2022-07-31T05:46:55;31.90;41.20
19050;DHT22;9657;45.940;12.840;2022-07-31T05:49:22;31.90;41.20
19050;DHT22;9657;45.940;12.840;2022-07-31T05:51:51;31.90;41.20
19050;DHT22;9657;45.940;12.840;2022-07-31T05:54:19;31.90;41.30
19050;DHT22;9657;45.940;12.840;2022-07-31T05:56:46;31.90;41.20
19050;DHT22;9657;45.940;12.840;2022-07-31T05:59:14;31.90;41.20
19050;DHT22;9657;45.940;12.840;2022-07-31T06:01:42;31.90;41.20
19050;DHT22;9657;45.940;12.840;2022-07-31T06:04:09;31.90;41.20
19050;DHT22;9657;45.940;12.840;2022-07-31T06:06:36;31.90;41.20
19050;DHT22;9657;45.940;12.840;2022-07-31T06:09:03;31.90;41.20
19050;DHT22;9657;45.940;12.840;2022-07-31T06:11:31;31.90;41.20
19050;DHT22;9657;45.940;12.840;2022-07-31T06:13:58;31.90;41.20
19050;DHT22;9657;45.940;12.840;2022-07-31T06:16:25;31.90;41.20
19050;DHT22;9657;45.940;12.840;2022-07-31T06:18:53;31.90;41.20
19050;DHT22;9657;45.940;12.840;2022-07-31T06:21:20;31.90;41.20
19050;DHT22;9657;45.940;12.840;2022-07-31T06:23:47;31.80;41.10
19050;DHT22;9657;45.940;12.840;2022-07-31T06:26:14;31.80;41.20
19050;DHT22;9657;45.940;12.840;2022-07-31T06:28:41;31.80;41.20
19050;DHT22;9657;45.940;12.840;2022-07-31T06:31:15;31.80;41.20
19050;DHT22;9657;45.940;12.840;2022-07-31T06:33:42;31.80;41.20
19050;DHT22;9657;45.940;12.840;2022-07-31T06:36:11;31.80;41.20
19050;DHT22;9657;45.940;12.840;2022-07-31T06:38:38;31.80;41.20
19050;DHT22;9657;45.940;12.840;2022-07-31T06:41:05;31.80;41.10
19050;DHT22;9657;45.940;12.840;2022-07-31T06:43:32;31.80;41.10
19050;DHT22;9657;45.940;12.840;2022-07-31T06:45:59;31.80;41.10
19050;DHT22;9657;45.940;12.840;2022-07-31T06:48:26;31.80;41.10
19050;DHT22;9657;45.940;12.840;2022-07-31T06:50:53;31.80;41.10
19050;DHT22;9657;45.940;12.840;2022-07-31T06:53:21;31.80;41.10
19050;DHT22;9657;45.940;12.840;2022-07-31T06:55:49;31.80;41.10
19050;DHT22;9657;45.940;12.840;2022-07-31T06:58:16;31.80;41.00
19050;DHT22;9657;45.940;12.840;2022-07-31T07:00:43;31.80;41.00
19050;DHT22;9657;45.940;12.840;2022-07-31T07:03:11;31.80;40.90
19050;DHT22;9657;45.940;12.840;2022-07-31T07:05:39;31.80;41.00
19050;DHT22;9657;45.940;12.840;2022-07-31T07:08:06;31.80;40.90
19050;DHT22;9657;45.940;12.840;2022-07-31T07:10:34;31.80;40.90
19050;DHT22;9657;45.940;12.840;2022-07-31T07:13:01;31.80;40.90
19050;DHT22;9657;45.940;12.840;2022-07-31T07:15:28;31.80;40.80
19050;DHT22;9657;45.940;12.840;2022-07-31T07:17:55;31.80;40.80
19050;DHT22;9657;45.940;12.840;2022-07-31T07:20:23;31.80;40.80
19050;DHT22;9657;45.940;12.840;2022-07-31T07:22:50;31.80;40.80
19050;DHT22;9657;45.940;12.840;2022-07-31T07:25:17;31.80;40.80
19050;DHT22;9657;45.940;12.840;2022-07-31T07:27:47;31.80;40.80
19050;DHT22;9657;45.940;12.840;2022-07-31T07:30:14;31.80;40.80
19050;DHT22;9657;45.940;12.840;2022-07-31T07:32:41;31.80;40.70
19050;DHT22;9657;45.940;12.840;2022-07-31T07:35:08;31.80;40.70
19050;DHT22;9657;45.940;12.840;2022-07-31T07:37:38;31.80;40.70
19050;DHT22;9657;45.940;12.840;2022-07-31T07:40:06;31.80;40.70
19050;DHT22;9657;45.940;12.840;2022-07-31T07:42:34;31.70;40.60
19050;DHT22;9657;45.940;12.840;2022-07-31T07:45:03;31.80;40.70
19050;DHT22;9657;45.940;12.840;2022-07-31T07:47:30;31.80;40.60
19050;DHT22;9657;45.940;12.840;2022-07-31T07:49:57;31.80;40.70
19050;DHT22;9657;45.940;12.840;2022-07-31T07:52:24;31.80;40.70
19050;DHT22;9657;45.940;12.840;2022-07-31T07:54:51;31.70;41.40
19050;DHT22;9657;45.940;12.840;2022-07-31T07:57:20;31.80;40.90
19050;DHT22;9657;45.940;12.840;2022-07-31T07:59:47;31.80;41.00
19050;DHT22;9657;45.940;12.840;2022-07-31T08:02:16;31.80;41.10
19050;DHT22;9657;45.940;12.840;2022-07-31T08:04:43;31.80;41.10
19050;DHT22;9657;45.940;12.840;2022-07-31T08:07:10;31.80;41.20
19050;DHT22;9657;45.940;12.840;2022-07-31T08:09:37;31.80;41.10
19050;DHT22;9657;45.940;12.840;2022-07-31T08:12:05;31.80;41.10
19050;DHT22;9657;45.940;12.840;2022-07-31T08:14:32;31.80;41.10
19050;DHT22;9657;45.940;12.840;2022-07-31T08:16:59;31.80;41.00
19050;DHT22;9657;45.940;12.840;2022-07-31T08:19:27;31.80;41.00
19050;DHT22;9657;45.940;12.840;2022-07-31T08:21:54;31.70;40.90
19050;DHT22;9657;45.940;12.840;2022-07-31T08:24:21;31.80;40.90
19050;DHT22;9657;45.940;12.840;2022-07-31T08:26:48;31.70;40.80
19050;DHT22;9657;45.940;12.840;2022-07-31T08:29:32;31.80;40.90
19050;DHT22;9657;45.940;12.840;2022-07-31T08:31:59;31.80;40.90
19050;DHT22;9657;45.940;12.840;2022-07-31T08:34:28;31.80;40.80
19050;DHT22;9657;45.940;12.840;2022-07-31T08:36:55;31.80;40.80
19050;DHT22;9657;45.940;12.840;2022-07-31T08:39:22;31.80;40.80
19050;DHT22;9657;45.940;12.840;2022-07-31T08:41:49;31.80;40.80
19050;DHT22;9657;45.940;12.840;2022-07-31T08:44:16;31.80;40.80
19050;DHT22;9657;45.940;12.840;2022-07-31T08:46:44;31.70;40.80
19050;DHT22;9657;45.940;12.840;2022-07-31T08:49:13;31.80;40.80
19050;DHT22;9657;45.940;12.840;2022-07-31T08:51:43;31.80;40.80
19050;DHT22;9657;45.940;12.840;2022-07-31T08:54:10;31.80;40.90
19050;DHT22;9657;45.940;12.840;2022-07-31T08:56:38;31.80;40.80
19050;DHT22;9657;45.940;12.840;2022-07-31T08:59:06;31.80;40.90
19050;DHT22;9657;45.940;12.840;2022-07-31T09:01:35;31.80;40.90
19050;DHT22;9657;45.940;12.840;2022-07-31T09:04:03;31.80;40.90
19050;DHT22;9657;45.940;12.840;2022-07-31T09:06:30;31.80;41.00
19050;DHT22;9657;45.940;12.840;2022-07-31T09:08:58;31.80;41.00
19050;DHT22;9657;45.940;12.840;2022-07-31T09:11:25;31.80;41.10
19050;DHT22;9657;45.940;12.840;2022-07-31T09:13:53;31.80;41.10
19050;DHT22;9657;45.940;12.840;2022-07-31T09:16:21;31.80;41.20
19050;DHT22;9657;45.940;12.840;2022-07-31T09:18:54;31.80;41.20
19050;DHT22;9657;45.940;12.840;2022-07-31T09:21:22;31.80;41.20
19050;DHT22;9657;45.940;12.840;2022-07-31T09:23:50;31.80;41.30
19050;DHT22;9657;45.940;12.840;2022-07-31T09:26:31;31.90;41.30
19050;DHT22;9657;45.940;12.840;2022-07-31T09:28:59;31.80;41.30
19050;DHT22;9657;45.940;12.840;2022-07-31T09:31:31;31.90;41.40
19050;DHT22;9657;45.940;12.840;2022-07-31T09:33:58;31.90;41.40
19050;DHT22;9657;45.940;12.840;2022-07-31T09:36:25;31.90;41.30
19050;DHT22;9657;45.940;12.840;2022-07-31T09:38:52;31.90;41.30
19050;DHT22;9657;45.940;12.840;2022-07-31T09:41:23;31.90;41.30
19050;DHT22;9657;45.940;12.840;2022-07-31T09:43:53;31.90;41.30
19050;DHT22;9657;45.940;12.840;2022-07-31T09:46:21;31.90;41.30
19050;DHT22;9657;45.940;12.840;2022-07-31T09:48:50;31.90;41.30
19050;DHT22;9657;45.940;12.840;2022-07-31T09:51:17;31.90;41.30
19050;DHT22;9657;45.940;12.840;2022-07-31T09:53:46;32.00;41.30
19050;DHT22;9657;45.940;12.840;2022-07-31T09:56:29;32.00;41.30
19050;DHT22;9657;45.940;12.840;2022-07-31T09:58:57;32.00;41.30
19050;DHT22;9657;45.940;12.840;2022-07-31T10:01:24;32.00;41.30
19050;DHT22;9657;45.940;12.840;2022-07-31T10:03:52;32.00;41.30
19050;DHT22;9657;45.940;12.840;2022-07-31T10:06:19;32.00;41.30
19050;DHT22;9657;45.940;12.840;2022-07-31T10:08:47;32.00;41.30
19050;DHT22;9657;45.940;12.840;2022-07-31T10:11:18;32.00;41.20
19050;DHT22;9657;45.940;12.840;2022-07-31T10:13:48;32.00;41.20
19050;DHT22;9657;45.940;12.840;2022-07-31T10:16:17;32.00;41.20
19050;DHT22;9657;45.940;12.840;2022-07-31T10:18:50;32.00;41.20
19050;DHT22;9657;45.940;12.840;2022-07-31T10:21:23;32.00;41.10
19050;DHT22;9657;45.940;12.840;2022-07-31T10:23:53;32.10;41.10
19050;DHT22;9657;45.940;12.840;2022-07-31T10:26:20;32.00;41.00
19050;DHT22;9657;45.940;12.840;2022-07-31T10:28:49;32.00;40.80
19050;DHT22;9657;45.940;12.840;2022-07-31T10:31:17;32.10;40.90
19050;DHT22;9657;45.940;12.840;2022-07-31T10:33:45;32.00;40.80
19050;DHT22;9657;45.940;12.840;2022-07-31T10:36:17;32.00;40.80
19050;DHT22;9657;45.940;12.840;2022-07-31T10:38:50;32.00;40.70
19050;DHT22;9657;45.940;12.840;2022-07-31T10:41:25;32.10;40.80
19050;DHT22;9657;45.940;12.840;2022-07-31T10:44:04;32.10;40.80
19050;DHT22;9657;45.940;12.840;2022-07-31T10:46:33;32.10;40.80
19050;DHT22;9657;45.940;12.840;2022-07-31T10:49:00;32.00;40.80
19050;DHT22;9657;45.940;12.840;2022-07-31T10:51:27;32.10;40.90
19050;DHT22;9657;45.940;12.840;2022-07-31T10:53:57;32.00;40.80
19050;DHT22;9657;45.940;12.840;2022-07-31T10:56:25;32.10;40.90
19050;DHT22;9657;45.940;12.840;2022-07-31T10:58:54;32.00;40.90
19050;DHT22;9657;45.940;12.840;2022-07-31T11:01:23;32.00;40.90
19050;DHT22;9657;45.940;12.840;2022-07-31T11:03:53;32.00;41.00
19050;DHT22;9657;45.940;12.840;2022-07-31T11:06:20;32.10;41.10
19050;DHT22;9657;45.940;12.840;2022-07-31T11:08:50;32.00;41.00
19050;DHT22;9657;45.940;12.840;2022-07-31T11:11:31;32.10;41.10
19050;DHT22;9657;45.940;12.840;2022-07-31T11:13:58;32.10;41.10
19050;DHT22;9657;45.940;12.840;2022-07-31T11:16:27;32.10;41.00
19050;DHT22;9657;45.940;12.840;2022-07-31T11:18:57;32.10;41.00
19050;DHT22;9657;45.940;12.840;2022-07-31T11:21:33;32.10;40.90
19050;DHT22;9657;45.940;12.840;2022-07-31T11:24:00;32.10;40.80
19050;DHT22;9657;45.940;12.840;2022-07-31T11:26:28;32.10;40.70
19050;DHT22;9657;45.940;12.840;2022-07-31T11:28:55;32.10;40.60
19050;DHT22;9657;45.940;12.840;2022-07-31T11:31:28;32.10;40.70
19050;DHT22;9657;45.940;12.840;2022-07-31T11:33:55;32.10;40.60
19050;DHT22;9657;45.940;12.840;2022-07-31T11:36:23;32.10;40.70
19050;DHT22;9657;45.940;12.840;2022-07-31T11:38:52;32.10;40.70
19050;DHT22;9657;45.940;12.840;2022-07-31T11:41:21;32.10;40.60
19050;DHT22;9657;45.940;12.840;2022-07-31T11:43:52;32.10;40.50
19050;DHT22;9657;45.940;12.840;2022-07-31T11:46:24;32.00;40.50
19050;DHT22;9657;45.940;12.840;2022-07-31T11:48:53;32.10;41.10
19050;DHT22;9657;45.940;12.840;2022-07-31T11:51:21;32.10;40.40
19050;DHT22;9657;45.940;12.840;2022-07-31T11:53:49;32.10;40.00
19050;DHT22;9657;45.940;12.840;2022-07-31T11:56:17;32.10;40.00
19050;DHT22;9657;45.940;12.840;2022-07-31T11:58:48;32.10;39.90
19050;DHT22;9657;45.940;12.840;2022-07-31T12:01:16;32.10;40.00
19050;DHT22;9657;45.940;12.840;2022-07-31T12:03:48;32.10;40.00
19050;DHT22;9657;45.940;12.840;2022-07-31T12:06:18;32.10;40.00
19050;DHT22;9657;45.940;12.840;2022-07-31T12:08:46;32.10;40.00
19050;DHT22;9657;45.940;12.840;2022-07-31T12:11:15;32.10;40.10
19050;DHT22;9657;45.940;12.840;2022-07-31T12:13:44;32.10;40.10
19050;DHT22;9657;45.940;12.840;2022-07-31T12:16:13;32.10;40.10
19050;DHT22;9657;45.940;12.840;2022-07-31T12:18:47;32.10;40.20
19050;DHT22;9657;45.940;12.840;2022-07-31T12:21:15;32.10;40.10
19050;DHT22;9657;45.940;12.840;2022-07-31T12:23:46;32.10;40.00
19050;DHT22;9657;45.940;12.840;2022-07-31T12:26:21;32.10;40.10
19050;DHT22;9657;45.940;12.840;2022-07-31T12:28:56;32.10;40.00
19050;DHT22;9657;45.940;12.840;2022-07-31T12:31:24;32.10;40.00
19050;DHT22;9657;45.940;12.840;2022-07-31T12:33:51;32.10;40.00
19050;DHT22;9657;45.940;12.840;2022-07-31T12:36:18;32.10;40.00
19050;DHT22;9657;45.940;12.840;2022-07-31T12:38:57;32.10;39.80
19050;DHT22;9657;45.940;12.840;2022-07-31T12:41:25;32.20;39.70
19050;DHT22;9657;45.940;12.840;2022-07-31T12:43:52;32.20;39.70
19050;DHT22;9657;45.940;12.840;2022-07-31T12:46:20;32.10;39.70
19050;DHT22;9657;45.940;12.840;2022-07-31T12:48:47;32.10;39.60
19050;DHT22;9657;45.940;12.840;2022-07-31T12:51:14;32.10;39.70
19050;DHT22;9657;45.940;12.840;2022-07-31T12:53:45;32.20;39.80
19050;DHT22;9657;45.940;12.840;2022-07-31T12:56:13;32.10;39.70
19050;DHT22;9657;45.940;12.840;2022-07-31T12:58:40;32.10;39.70
19050;DHT22;9657;45.940;12.840;2022-07-31T13:01:07;32.10;39.70
19050;DHT22;9657;45.940;12.840;2022-07-31T13:03:34;32.10;39.70
19050;DHT22;9657;45.940;12.840;2022-07-31T13:06:01;32.10;39.80
19050;DHT22;9657;45.940;12.840;2022-07-31T13:08:28;32.10;39.60
19050;DHT22;9657;45.940;12.840;2022-07-31T13:10:56;32.10;39.60
19050;DHT22;9657;45.940;12.840;2022-07-31T13:13:24;32.10;39.80
19050;DHT22;9657;45.940;12.840;2022-07-31T13:15:51;32.10;39.70
19050;DHT22;9657;45.940;12.840;2022-07-31T13:18:18;32.10;39.50
19050;DHT22;9657;45.940;12.840;2022-07-31T13:20:45;32.10;39.50
19050;DHT22;9657;45.940;12.840;2022-07-31T13:23:12;32.10;39.60
19050;DHT22;9657;45.940;12.840;2022-07-31T13:25:39;32.10;40.30
19050;DHT22;9657;45.940;12.840;2022-07-31T13:28:08;32.20;39.70
19050;DHT22;9657;45.940;12.840;2022-07-31T13:30:35;32.10;39.60
19050;DHT22;9657;45.940;12.840;2022-07-31T13:33:02;32.10;40.20
19050;DHT22;9657;45.940;12.840;2022-07-31T13:35:30;32.20;39.70
19050;DHT22;9657;45.940;12.840;2022-07-31T13:37:57;32.20;39.70
19050;DHT22;9657;45.940;12.840;2022-07-31T13:40:24;32.20;39.70
19050;DHT22;9657;45.940;12.840;2022-07-31T13:43:05;32.20;39.80
19050;DHT22;9657;45.940;12.840;2022-07-31T13:45:34;32.20;39.90
19050;DHT22;9657;45.940;12.840;2022-07-31T13:48:02;32.20;39.90
19050;DHT22;9657;45.940;12.840;2022-07-31T13:50:29;32.20;39.90
19050;DHT22;9657;45.940;12.840;2022-07-31T13:52:56;32.20;39.90
19050;DHT22;9657;45.940;12.840;2022-07-31T13:55:23;32.20;40.00
19050;DHT22;9657;45.940;12.840;2022-07-31T13:57:50;32.20;40.10
19050;DHT22;9657;45.940;12.840;2022-07-31T14:00:17;32.20;40.10
19050;DHT22;9657;45.940;12.840;2022-07-31T14:02:46;32.20;40.10
19050;DHT22;9657;45.940;12.840;2022-07-31T14:05:14;32.20;40.10
19050;DHT22;9657;45.940;12.840;2022-07-31T14:07:41;32.20;40.10
19050;DHT22;9657;45.940;12.840;2022-07-31T14:10:09;32.20;40.10
19050;DHT22;9657;45.940;12.840;2022-07-31T14:12:36;32.20;40.10
19050;DHT22;9657;45.940;12.840;2022-07-31T14:15:05;32.20;40.70
19050;DHT22;9657;45.940;12.840;2022-07-31T14:17:32;32.20;40.00
19050;DHT22;9657;45.940;12.840;2022-07-31T14:20:01;32.20;40.00
19050;DHT22;9657;45.940;12.840;2022-07-31T14:22:28;32.20;40.10
19050;DHT22;9657;45.940;12.840;2022-07-31T14:24:55;32.20;39.90
19050;DHT22;9657;45.940;12.840;2022-07-31T14:27:22;32.20;39.70
19050;DHT22;9657;45.940;12.840;2022-07-31T14:29:49;32.20;39.80
19050;DHT22;9657;45.940;12.840;2022-07-31T14:32:17;32.20;39.90
19050;DHT22;9657;45.940;12.840;2022-07-31T14:34:46;32.20;39.80
19050;DHT22;9657;45.940;12.840;2022-07-31T14:37:14;32.20;39.90
19050;DHT22;9657;45.940;12.840;2022-07-31T14:39:42;32.20;39.80
19050;DHT22;9657;45.940;12.840;2022-07-31T14:42:09;32.20;39.90
19050;DHT22;9657;45.940;12.840;2022-07-31T14:44:37;32.20;40.10
19050;DHT22;9657;45.940;12.840;2022-07-31T14:47:06;32.20;40.20
19050;DHT22;9657;45.940;12.840;2022-07-31T14:49:33;32.20;40.50
19050;DHT22;9657;45.940;12.840;2022-07-31T14:52:01;32.20;40.60
19050;DHT22;9657;45.940;12.840;2022-07-31T14:54:29;32.20;40.70
19050;DHT22;9657;45.940;12.840;2022-07-31T14:56:57;32.20;40.80
19050;DHT22;9657;45.940;12.840;2022-07-31T14:59:26;32.20;40.80
19050;DHT22;9657;45.940;12.840;2022-07-31T15:01:53;32.20;41.60
19050;DHT22;9657;45.940;12.840;2022-07-31T15:04:20;32.20;40.80
19050;DHT22;9657;45.940;12.840;2022-07-31T15:06:47;32.20;40.90
19050;DHT22;9657;45.940;12.840;2022-07-31T15:09:14;32.30;41.00
19050;DHT22;9657;45.940;12.840;2022-07-31T15:11:43;32.20;40.90
19050;DHT22;9657;45.940;12.840;2022-07-31T15:14:11;32.30;41.70
19050;DHT22;9657;45.940;12.840;2022-07-31T15:16:38;32.30;41.00
19050;DHT22;9657;45.940;12.840;2022-07-31T15:19:05;32.30;41.00
19050;DHT22;9657;45.940;12.840;2022-07-31T15:21:33;32.30;41.00
19050;DHT22;9657;45.940;12.840;2022-07-31T15:24:00;32.30;41.00
19050;DHT22;9657;45.940;12.840;2022-07-31T15:26:27;32.30;41.00
19050;DHT22;9657;45.940;12.840;2022-07-31T15:28:55;32.30;41.00
19050;DHT22;9657;45.940;12.840;2022-07-31T15:31:23;32.30;41.00
19050;DHT22;9657;45.940;12.840;2022-07-31T15:33:50;32.30;41.10
19050;DHT22;9657;45.940;12.840;2022-07-31T15:36:22;32.30;41.10
19050;DHT22;9657;45.940;12.840;2022-07-31T15:38:49;32.30;41.20